createdAt,value
2019-04-06T00:02:26.525Z,8.20
2019-04-06T00:07:32.359Z,8.13
2019-04-06T00:12:37.691Z,8.09
2019-04-06T00:17:43.409Z,7.95
2019-04-06T00:22:48.954Z,7.96
2019-04-06T00:27:54.308Z,7.90
2019-04-06T00:33:11.135Z,7.87
2019-04-06T00:38:16.940Z,7.90
2019-04-06T00:43:22.461Z,7.87
2019-04-06T00:48:28.158Z,7.94
2019-04-06T00:53:33.546Z,7.93
2019-04-06T00:58:38.854Z,7.99
2019-04-06T01:03:44.067Z,7.97
2019-04-06T01:08:49.452Z,8.01
2019-04-06T01:13:55.169Z,8.03
2019-04-06T01:19:00.794Z,8.11
2019-04-06T01:24:06.244Z,8.13
2019-04-06T01:29:11.606Z,8.04
2019-04-06T01:34:16.884Z,8.17
2019-04-06T01:39:22.258Z,8.07
2019-04-06T01:44:27.869Z,8.13
2019-04-06T01:49:33.282Z,8.14
2019-04-06T01:54:39.082Z,8.14
2019-04-06T01:59:44.503Z,8.11
2019-04-06T02:04:49.846Z,8.06
2019-04-06T02:09:55.092Z,8.04
2019-04-06T02:15:00.451Z,8.12
2019-04-06T02:20:06.509Z,8.15
2019-04-06T02:25:12.157Z,8.03
2019-04-06T02:30:33.148Z,8.08
2019-04-06T02:35:57.636Z,8.08
2019-04-06T02:41:08.946Z,8.07
2019-04-06T02:46:14.887Z,8.00
2019-04-06T02:51:20.482Z,7.95
2019-04-06T02:56:26.142Z,7.94
2019-04-06T03:01:31.798Z,7.87
2019-04-06T03:06:38.036Z,7.91
2019-04-06T03:11:43.302Z,7.95
2019-04-06T03:16:48.676Z,7.95
2019-04-06T03:21:53.948Z,8.12
2019-04-06T03:27:02.446Z,7.99
2019-04-06T03:32:06.374Z,7.98
2019-04-06T03:37:12.083Z,8.01
2019-04-06T03:42:17.498Z,8.22
2019-04-06T03:47:22.780Z,8.26
2019-04-06T03:52:28.390Z,8.32
2019-04-06T03:57:33.871Z,8.18
2019-04-06T04:02:39.181Z,8.06
2019-04-06T04:07:45.769Z,8.07
2019-04-06T04:12:51.468Z,8.18
2019-04-06T04:17:57.166Z,8.05
2019-04-06T04:23:02.618Z,8.14
2019-04-06T04:28:07.987Z,8.14
2019-04-06T04:33:13.450Z,8.13
2019-04-06T04:38:18.771Z,8.31
2019-04-06T04:43:24.071Z,8.20
2019-04-06T04:48:29.508Z,8.23
2019-04-06T04:53:35.043Z,8.29
2019-04-06T04:58:40.350Z,8.25
2019-04-06T05:03:45.791Z,8.08
2019-04-06T05:08:50.997Z,8.10
2019-04-06T05:14:32.583Z,8.20
2019-04-06T05:19:38.016Z,8.19
2019-04-06T05:24:43.332Z,8.15
2019-04-06T05:29:48.864Z,8.25
2019-04-06T05:34:54.176Z,8.29
2019-04-06T05:39:59.390Z,8.23
2019-04-06T05:45:04.949Z,8.25
2019-04-06T05:50:10.326Z,8.30
2019-04-06T05:55:15.818Z,8.33
2019-04-06T06:00:21.108Z,8.50
2019-04-06T06:05:26.681Z,8.54
2019-04-06T06:10:32.150Z,8.49
2019-04-06T06:15:38.470Z,8.51
2019-04-06T06:20:44.958Z,8.56
2019-04-06T06:25:50.382Z,8.66
2019-04-06T06:30:56.074Z,8.72
2019-04-06T06:36:01.613Z,8.86
2019-04-06T06:41:07.115Z,8.92
2019-04-06T06:46:12.407Z,9.02
2019-04-06T06:51:17.814Z,9.06
2019-04-06T06:56:23.246Z,9.07
2019-04-06T07:01:28.999Z,9.25
2019-04-06T07:06:34.237Z,9.39
2019-04-06T07:11:39.520Z,9.57
2019-04-06T07:16:45.017Z,9.49
2019-04-06T07:21:50.354Z,9.40
2019-04-06T07:26:56.817Z,9.51
2019-04-06T07:32:02.214Z,9.69
2019-04-06T07:37:07.723Z,9.69
2019-04-06T07:42:13.128Z,9.77
2019-04-06T07:47:18.724Z,9.95
2019-04-06T07:52:24.163Z,10.06
2019-04-06T07:57:29.728Z,9.86
2019-04-06T08:02:35.304Z,10.33
2019-04-06T08:07:40.645Z,10.30
2019-04-06T08:12:46.156Z,10.45
2019-04-06T08:17:52.997Z,10.43
2019-04-06T08:22:59.282Z,11.17
2019-04-06T08:28:05.526Z,10.98
2019-04-06T08:33:11.340Z,11.25
2019-04-06T08:38:17.044Z,11.74
2019-04-06T08:43:24.043Z,11.69
2019-04-06T08:48:29.358Z,12.01
2019-04-06T08:53:34.799Z,11.93
2019-04-06T08:58:40.672Z,12.11
2019-04-06T09:03:46.003Z,12.29
2019-04-06T09:08:51.691Z,12.94
2019-04-06T09:13:58.423Z,12.65
2019-04-06T09:19:04.161Z,13.23
2019-04-06T09:24:09.747Z,13.24
2019-04-06T09:29:23.178Z,13.30
2019-04-06T09:34:22.476Z,13.27
2019-04-06T09:39:27.930Z,13.66
2019-04-06T09:44:52.217Z,13.78
2019-04-06T09:50:15.516Z,13.78
2019-04-06T09:55:46.359Z,14.13
2019-04-06T10:00:58.892Z,14.42
2019-04-06T10:06:32.564Z,14.89
2019-04-06T10:12:15.124Z,14.87
2019-04-06T10:17:50.862Z,15.10
2019-04-06T10:23:17.948Z,15.17
2019-04-06T10:28:41.189Z,15.24
2019-04-06T10:33:57.475Z,15.81
2019-04-06T10:39:35.855Z,15.61
2019-04-06T10:45:00.471Z,16.13
2019-04-06T10:50:27.933Z,16.40
2019-04-06T10:55:53.031Z,16.09
2019-04-06T11:01:16.322Z,16.25
2019-04-06T11:06:47.253Z,16.54
2019-04-06T11:12:10.703Z,17.14
2019-04-06T11:17:38.560Z,16.80
2019-04-06T11:23:02.357Z,17.11
2019-04-06T11:28:21.187Z,16.97
2019-04-06T11:34:00.598Z,17.55
2019-04-06T11:39:37.586Z,17.32
2019-04-06T11:45:06.678Z,17.03
2019-04-06T11:50:38.060Z,16.92
2019-04-06T11:56:18.891Z,17.20
2019-04-06T12:01:36.461Z,16.94
2019-04-06T12:07:05.024Z,16.87
2019-04-06T12:12:20.549Z,17.12
2019-04-06T12:17:48.283Z,16.83
2019-04-06T12:23:00.480Z,17.16
2019-04-06T12:28:16.668Z,17.67
2019-04-06T12:33:39.861Z,17.17
2019-04-06T12:38:55.070Z,16.86
2019-04-06T12:44:18.209Z,16.90
2019-04-06T12:50:01.561Z,17.96
2019-04-06T12:55:29.619Z,17.77
2019-04-06T13:00:54.390Z,17.15
2019-04-06T13:06:11.320Z,16.76
2019-04-06T13:11:32.209Z,16.50
2019-04-06T13:16:43.563Z,16.67
2019-04-06T13:22:13.021Z,16.61
2019-04-06T13:27:25.280Z,16.77
2019-04-06T13:32:40.788Z,17.24
2019-04-06T13:38:05.410Z,16.88
2019-04-06T13:43:17.719Z,16.80
2019-04-06T13:49:01.188Z,17.10
2019-04-06T13:54:18.369Z,16.93
2019-04-06T13:59:33.129Z,17.16
2019-04-06T14:04:48.015Z,17.10
2019-04-06T14:10:09.325Z,16.91
2019-04-06T14:15:32.519Z,16.92
2019-04-06T14:20:55.812Z,17.12
2019-04-06T14:26:18.943Z,16.78
2019-04-06T14:31:52.358Z,17.02
2019-04-06T14:37:20.469Z,17.05
2019-04-06T14:42:37.746Z,17.26
2019-04-06T14:48:02.037Z,17.85
2019-04-06T14:53:14.905Z,18.73
2019-04-06T14:58:58.226Z,19.42
2019-04-06T15:04:23.512Z,19.48
2019-04-06T15:09:46.368Z,19.18
2019-04-06T15:15:11.773Z,19.35
2019-04-06T15:20:39.986Z,18.78
2019-04-06T15:25:54.913Z,18.67
2019-04-06T15:31:06.625Z,18.35
2019-04-06T15:36:20.921Z,18.70
2019-04-06T15:42:03.738Z,18.63
2019-04-06T15:47:22.594Z,18.63
2019-04-06T15:52:55.965Z,18.57
2019-04-06T15:58:07.787Z,18.94
2019-04-06T16:03:26.216Z,19.31
2019-04-06T16:08:41.183Z,19.57
2019-04-06T16:14:04.271Z,22.69
2019-04-06T16:19:20.984Z,23.00
2019-04-06T16:24:38.753Z,21.09
2019-04-06T16:30:12.007Z,20.23
2019-04-06T16:35:43.809Z,19.72
2019-04-06T16:41:23.444Z,20.03
2019-04-06T16:46:53.798Z,19.62
2019-04-06T16:52:20.333Z,19.46
2019-04-06T16:57:45.575Z,19.32
2019-04-06T17:03:18.770Z,18.74
2019-04-06T17:08:46.953Z,18.64
2019-04-06T17:14:13.453Z,18.69
2019-04-06T17:19:37.440Z,18.42
2019-04-06T17:25:02.982Z,17.97
2019-04-06T17:30:15.845Z,17.48
2019-04-06T17:35:45.214Z,17.10
2019-04-06T17:41:00.388Z,16.69
2019-04-06T17:46:23.378Z,16.32
2019-04-06T17:51:37.630Z,16.07
2019-04-06T17:56:54.106Z,15.82
2019-04-06T18:02:30.308Z,15.48
2019-04-06T18:08:03.828Z,15.07
2019-04-06T18:13:34.483Z,14.80
2019-04-06T18:18:40.109Z,14.47
2019-04-06T18:23:46.146Z,14.16
2019-04-06T18:28:51.595Z,13.87
2019-04-06T18:33:56.968Z,13.68
2019-04-06T18:39:07.190Z,13.35
2019-04-06T18:44:12.991Z,13.21
2019-04-06T18:49:18.369Z,13.01
2019-04-06T18:54:24.707Z,12.78
2019-04-06T18:59:29.947Z,12.58
2019-04-06T19:04:35.347Z,12.41
2019-04-06T19:09:41.828Z,12.25
2019-04-06T19:14:47.403Z,12.15
2019-04-06T19:19:52.694Z,12.03
2019-04-06T19:24:58.032Z,11.83
2019-04-06T19:30:04.840Z,11.77
2019-04-06T19:35:10.875Z,11.75
2019-04-06T19:40:16.392Z,11.56
2019-04-06T19:45:23.746Z,11.42
2019-04-06T19:50:29.028Z,11.28
2019-04-06T19:55:35.690Z,11.16
2019-04-06T20:00:41.315Z,11.08
2019-04-06T20:05:47.349Z,11.01
2019-04-06T20:10:53.142Z,10.96
2019-04-06T20:15:58.750Z,10.82
2019-04-06T20:21:04.068Z,10.72
2019-04-06T20:26:09.366Z,10.68
2019-04-06T20:31:14.879Z,10.64
2019-04-06T20:36:20.463Z,10.64
2019-04-06T20:41:26.148Z,10.60
2019-04-06T20:46:32.016Z,10.65
2019-04-06T20:51:39.261Z,10.50
2019-04-06T20:56:53.908Z,10.46
2019-04-06T21:01:52.185Z,10.45
2019-04-06T21:06:57.712Z,10.50
2019-04-06T21:12:03.722Z,10.35
2019-04-06T21:17:09.593Z,10.24
2019-04-06T21:22:15.019Z,10.22
2019-04-06T21:27:20.396Z,10.09
2019-04-06T21:32:26.120Z,10.14
2019-04-06T21:37:31.539Z,10.05
2019-04-06T21:42:37.634Z,9.97
2019-04-06T21:47:43.339Z,9.87
2019-04-06T21:52:49.686Z,9.82
2019-04-06T21:57:55.352Z,9.77
2019-04-06T22:03:01.628Z,9.67
2019-04-06T22:08:07.369Z,9.60
2019-04-06T22:13:13.196Z,9.53
2019-04-06T22:18:19.330Z,9.42
2019-04-06T22:23:25.228Z,9.38
2019-04-06T22:28:31.110Z,9.30
2019-04-06T22:33:36.505Z,9.29
2019-04-06T22:38:42.123Z,9.28
2019-04-06T22:43:47.883Z,9.20
2019-04-06T22:48:53.183Z,9.12
2019-04-06T22:53:58.619Z,9.06
2019-04-06T22:59:03.912Z,9.04
2019-04-06T23:04:45.735Z,9.02
2019-04-06T23:09:41.697Z,8.96
2019-04-06T23:14:47.770Z,8.87
2019-04-06T23:19:53.555Z,8.89
2019-04-06T23:24:59.031Z,8.78
2019-04-06T23:30:05.072Z,8.74
2019-04-06T23:35:10.807Z,8.55
2019-04-06T23:40:16.798Z,8.74
2019-04-06T23:45:23.532Z,8.66
2019-04-06T23:50:29.391Z,8.51
2019-04-06T23:55:35.344Z,8.40
